Time;durP1;ratioP1;P1;durP2;ratioP2;P2;SDS_P1;SDS_P2;PMS_P1;PMS_P2;Temp;Humidity;BMP_temperature;BMP_pressure;BME280_temperature;BME280_humidity;BME280_pressure;Samples;Min_cycle;Max_cycle;Signal;HPM_P1;HPM_P2
2022/06/13 06:06:51;;;;;;;;;;;;;;;;;;;;;
2022/06/13 06:51:33;;;;;;;;;;;;;;;;;;;;;
2022/06/13 07:01:39;;;;;;;;;;;;;;;;;;;;;
2022/06/13 07:08:36;;;;;;;;;;;;;;;;;;;;;
2022/06/13 07:17:58;;;;;;;;;;;;;;;;;;;;;
2022/06/13 07:28:06;;;;;;;14.70;9.27;;;47.50;99.90;;;;;;6201681;23;20871;-83
2022/06/13 07:31:21;;;;;;;;;;;;;;;;;;;;;
2022/06/13 07:47:49;;;;;;;13.03;6.90;;;52.40;99.90;;;;;;6211739;23;20235;-81
2022/06/13 07:50:58;;;;;;;11.97;6.80;;;49.30;99.90;;;;;;6222319;23;20727;-81
2022/06/13 08:05:59;;;;;;;14.97;6.60;;;52.70;99.90;;;;;;6205547;23;20170;-81
2022/06/13 08:08:55;;;;;;;9.33;5.13;;;47.90;95.00;;;;;;6246217;23;20367;-81
2022/06/13 08:12:25;;;;;;;10.77;5.80;;;49.90;98.70;;;;;;6253081;23;20376;-82
2022/06/13 08:15:58;;;;;;;;;;;;;;;;;;;;;
2022/06/13 08:18:50;;;;;;;12.00;5.70;;;48.50;93.40;;;;;;6244971;23;20731;-81
2022/06/13 08:21:34;;;;;;;;;;;;;;;;;;;;;
2022/06/13 08:24:01;;;;;;;10.97;5.10;;;45.60;86.90;;;;;;6250365;23;20475;-81
2022/06/13 08:26:30;;;;;;;10.53;5.40;;;41.20;71.10;;;;;;6248773;23;20425;-82
2022/06/13 08:42:46;;;;;;;8.20;4.10;;;44.60;86.00;;;;;;6233425;22;20400;-83
2022/06/13 08:45:55;;;;;;;7.63;4.10;;;40.00;67.80;;;;;;6202877;23;20439;-82
2022/06/13 08:48:39;;;;;;;10.33;4.10;;;36.40;58.20;;;;;;6236019;23;20391;-83
2022/06/13 08:51:13;;;;;;;11.70;4.50;;;38.00;70.10;;;;;;6222568;23;20450;-82
2022/06/13 08:54:13;;;;;;;11.10;3.73;;;36.30;63.80;;;;;;6223426;23;20461;-82
2022/06/13 08:57:30;;;;;;;9.03;4.50;;;38.20;75.60;;;;;;6223807;23;20396;-81
2022/06/13 09:00:40;;;;;;;;;;;;;;;;;;;;;
2022/06/13 09:03:39;;;;;;;;;;;;;;;;;;;;;
2022/06/13 09:06:34;;;;;;;;;;;;;;;;;;;;;
2022/06/13 09:09:14;;;;;;;16.47;4.07;;;31.70;57.60;;;;;;6248116;23;21036;-81
2022/06/13 09:12:21;;;;;;;;;;;;;;;;;;;;;
2022/06/13 09:15:50;;;;;;;8.87;4.50;;;29.00;54.90;;;;;;6227527;23;20415;-82
2022/06/13 09:22:13;;;;;;;9.33;3.80;;;32.50;93.70;;;;;;6222692;23;20368;-82
2022/06/13 09:25:00;;;;;;;;;;;;;;;;;;;;;
2022/06/13 09:50:48;;;;;;;;;;;;;;;;;;;;;
2022/06/13 09:53:33;;;;;;;7.83;3.40;;;28.70;74.00;;;;;;6247153;22;20443;-82
2022/06/13 09:59:35;;;;;;;7.70;3.13;;;29.40;78.30;;;;;;6248149;23;20380;-81
2022/06/13 10:03:00;;;;;;;;;;;;;;;;;;;;;
2022/06/13 10:09:42;;;;;;;10.67;4.67;;;25.90;66.50;;;;;;6110516;23;20403;-81
2022/06/13 10:13:13;;;;;;;;;;;;;;;;;;;;;
2022/06/13 10:16:55;;;;;;;;;;;;;;;;;;;;;
2022/06/13 10:30:15;;;;;;;;;;;;;;;;;;;;;
2022/06/13 10:36:44;;;;;;;7.63;3.20;;;27.60;83.40;;;;;;6121617;23;20395;-81
2022/06/13 10:39:41;;;;;;;;;;;;;;;;;;;;;
2022/06/13 10:46:14;;;;;;;;;;;;;;;;;;;;;
2022/06/13 10:53:02;;;;;;;6.73;2.67;;;30.80;96.00;;;;;;6121725;23;20948;-83
2022/06/13 11:06:40;;;;;;;8.07;2.53;;;35.20;99.90;;;;;;6249706;23;20499;-82
2022/06/13 11:13:25;;;;;;;;;;;;;;;;;;;;;
2022/06/13 11:29:07;;;;;;;4.60;2.50;;;32.80;89.10;;;;;;6208011;23;20389;-82
2022/06/13 11:31:51;;;;;;;6.13;3.00;;;32.00;84.00;;;;;;6205012;23;20471;-82
2022/06/13 11:35:29;;;;;;;;;;;;;;;;;;;;;
2022/06/13 11:56:11;;;;;;;6.40;2.00;;;29.20;70.40;;;;;;6210632;23;20435;-82
2022/06/13 11:59:00;;;;;;;4.13;1.67;;;30.40;77.70;;;;;;6191940;23;20381;-82
2022/06/13 12:01:35;;;;;;;8.20;2.00;;;31.30;83.30;;;;;;6190894;23;20443;-81
2022/06/13 12:04:07;;;;;;;2.70;1.40;;;31.80;82.30;;;;;;6218333;23;20492;-81
2022/06/13 12:06:41;;;;;;;5.20;1.40;;;32.20;83.90;;;;;;6191986;23;20779;-82
2022/06/13 12:09:31;;;;;;;3.63;1.70;;;32.60;84.80;;;;;;6247872;23;20372;-81
2022/06/13 12:12:00;;;;;;;2.63;1.20;;;32.90;84.00;;;;;;6221475;23;20423;-82
2022/06/13 12:14:26;;;;;;;3.77;1.80;;;33.20;96.50;;;;;;6246967;23;20403;-81
2022/06/13 12:17:07;;;;;;;5.93;1.87;;;33.60;85.60;;;;;;6246620;23;20386;-80
2022/06/13 12:19:53;;;;;;;7.33;2.10;;;33.70;85.00;;;;;;6247543;23;20360;-82
2022/06/13 12:22:20;;;;;;;3.90;1.40;;;33.70;86.10;;;;;;6220519;23;20399;-81
2022/06/13 12:24:58;;;;;;;3.03;1.57;;;33.70;84.20;;;;;;6222089;23;20511;-81
2022/06/13 12:27:46;;;;;;;4.67;1.60;;;33.70;85.10;;;;;;6221769;23;20383;-81
2022/06/13 12:30:33;;;;;;;5.30;1.70;;;33.30;82.50;;;;;;6246276;23;20384;-83
2022/06/13 12:33:23;;;;;;;6.33;1.60;;;33.20;80.60;;;;;;6246884;22;20419;-82
2022/06/13 12:36:11;;;;;;;4.40;1.80;;;33.30;81.80;;;;;;6220581;23;20384;-81
2022/06/13 12:38:54;;;;;;;4.00;1.67;;;32.70;78.70;;;;;;6220031;23;20445;-80
2022/06/13 12:41:50;;;;;;;2.47;1.67;;;32.40;77.60;;;;;;6248397;23;20371;-80
2022/06/13 12:44:53;;;;;;;4.47;1.80;;;32.70;78.70;;;;;;6220284;23;20423;-81
2022/06/13 12:47:28;;;;;;;3.63;1.40;;;32.40;76.70;;;;;;6219444;23;20420;-81
2022/06/13 12:50:41;;;;;;;3.17;1.80;;;32.20;75.00;;;;;;6220184;23;20944;-82
2022/06/13 12:53:20;;;;;;;4.23;1.60;;;32.00;75.40;;;;;;6211791;23;20460;-81
2022/06/13 12:55:53;;;;;;;8.80;1.50;;;30.90;69.40;;;;;;6219357;23;20416;-81
2022/06/13 12:58:37;;;;;;;3.73;1.70;;;29.80;64.70;;;;;;6219401;23;20385;-81
2022/06/13 13:01:11;;;;;;;2.70;1.17;;;28.90;60.00;;;;;;6246803;23;20873;-80
2022/06/13 13:03:52;;;;;;;5.17;1.37;;;28.90;61.90;;;;;;6219564;23;20474;-81
2022/06/13 13:06:41;;;;;;;3.00;1.43;;;29.30;62.90;;;;;;6220213;23;20731;-81
2022/06/13 13:09:15;;;;;;;3.20;1.00;;;29.90;65.40;;;;;;6248403;23;20367;-82
2022/06/13 13:12:18;;;;;;;3.90;1.30;;;30.30;70.00;;;;;;6222522;22;20471;-81
2022/06/13 13:14:56;;;;;;;5.53;1.93;;;30.00;69.10;;;;;;6221609;23;20512;-81
2022/06/13 13:17:44;;;;;;;4.73;2.40;;;29.50;68.00;;;;;;6221615;23;20387;-81
2022/06/13 13:20:18;;;;;;;3.73;2.17;;;29.20;68.00;;;;;;6222072;23;20379;-81
2022/06/13 13:23:37;;;;;;;4.43;2.07;;;29.00;87.60;;;;;;6221976;23;20407;-81
2022/06/13 13:26:15;;;;;;;3.10;1.93;;;28.70;66.90;;;;;;6130792;23;20874;-81
2022/06/13 13:28:56;;;;;;;3.20;1.50;;;28.70;68.70;;;;;;6248887;23;20505;-82
2022/06/13 13:31:36;;;;;;;3.63;1.43;;;28.70;68.60;;;;;;6221894;23;20389;-81
2022/06/13 13:34:14;;;;;;;2.23;1.30;;;28.30;66.10;;;;;;6221868;23;20427;-81
2022/06/13 13:36:52;;;;;;;3.53;1.30;;;28.00;65.20;;;;;;6222329;23;20386;-81
2022/06/13 13:39:33;;;;;;;2.77;1.40;;;28.00;65.40;;;;;;6221427;23;20748;-81
2022/06/13 13:42:05;;;;;;;3.17;1.23;;;28.00;66.70;;;;;;6246836;22;20395;-82
2022/06/13 13:44:45;;;;;;;3.30;1.70;;;27.50;64.50;;;;;;6221676;23;20706;-80
2022/06/13 13:47:19;;;;;;;4.67;1.53;;;27.10;63.10;;;;;;6220409;23;20391;-82
2022/06/13 13:50:11;;;;;;;2.93;1.10;;;27.20;64.60;;;;;;6221212;23;20833;-81
2022/06/13 13:52:40;;;;;;;3.33;1.50;;;27.10;65.80;;;;;;6221660;23;20436;-81
2022/06/13 13:55:31;;;;;;;3.00;1.10;;;27.00;65.30;;;;;;6221968;23;20494;-81
2022/06/13 13:58:03;;;;;;;4.70;1.30;;;26.70;64.00;;;;;;6221694;23;20461;-81
2022/06/13 14:00:55;;;;;;;5.17;1.20;;;26.30;63.70;;;;;;6222151;23;20398;-82
2022/06/13 14:03:41;;;;;;;4.30;1.60;;;26.10;61.40;;;;;;6204856;23;20439;-82
2022/06/13 14:06:09;;;;;;;5.33;1.57;;;25.90;63.20;;;;;;6247017;23;20414;-80
2022/06/13 14:08:43;;;;;;;3.17;1.47;;;25.90;65.30;;;;;;6220617;23;20903;-80
2022/06/13 14:11:10;;;;;;;4.97;1.40;;;25.90;68.10;;;;;;6219374;23;20396;-82
2022/06/13 14:13:38;;;;;;;4.57;1.60;;;25.80;68.00;;;;;;6220316;23;20410;-82
2022/06/13 14:16:06;;;;;;;4.13;1.30;;;25.60;68.30;;;;;;6246384;23;20394;-81
2022/06/13 14:18:32;;;;;;;2.77;1.30;;;25.50;67.60;;;;;;6219592;23;20404;-82
2022/06/13 14:21:00;;;;;;;1.97;1.33;;;25.50;68.70;;;;;;6246149;23;20367;-81
2022/06/13 14:23:37;;;;;;;3.30;1.70;;;25.60;69.30;;;;;;6246770;22;20169;-82
2022/06/13 14:26:04;;;;;;;4.47;1.40;;;25.70;71.70;;;;;;6220188;23;20705;-81
2022/06/13 14:28:47;;;;;;;4.47;1.10;;;25.70;73.50;;;;;;6247722;23;20378;-81
2022/06/13 14:31:13;;;;;;;2.27;1.30;;;25.40;73.00;;;;;;6220180;23;20725;-81
2022/06/13 14:36:50;;;;;;;3.70;1.20;;;25.00;71.00;;;;;;6246620;23;20366;-81
2022/06/13 14:39:34;;;;;;;2.10;1.53;;;24.60;69.00;;;;;;6219435;23;20381;-82
2022/06/13 14:42:27;;;;;;;4.13;1.17;;;24.10;65.80;;;;;;6247810;22;20392;-80
2022/06/13 14:45:06;;;;;;;2.93;1.10;;;23.90;65.60;;;;;;6221412;23;20917;-81
2022/06/13 14:48:08;;;;;;;4.10;1.57;;;24.00;67.10;;;;;;6219452;23;20392;-82
2022/06/13 14:50:40;;;;;;;4.37;1.30;;;24.20;70.70;;;;;;6219944;23;20385;-81
2022/06/13 14:53:30;;;;;;;2.47;1.10;;;24.50;73.30;;;;;;6247988;22;20390;-82
2022/06/13 14:56:08;;;;;;;5.13;1.27;;;24.80;76.50;;;;;;6220686;23;20434;-82
2022/06/13 14:58:45;;;;;;;5.90;1.77;;;25.00;78.10;;;;;;6246959;23;20378;-81
2022/06/13 15:01:26;;;;;;;4.70;1.37;;;25.00;79.70;;;;;;6220434;23;20895;-84
2022/06/13 15:04:04;;;;;;;1.93;1.00;;;24.90;76.90;;;;;;6247584;22;20453;-81
2022/06/13 15:06:43;;;;;;;2.83;1.27;;;25.00;78.60;;;;;;6246318;23;20383;-82
2022/06/13 15:09:35;;;;;;;5.17;1.37;;;25.30;79.90;;;;;;6247535;23;20455;-81
2022/06/13 15:12:12;;;;;;;3.30;1.20;;;25.40;79.60;;;;;;6247139;22;20461;-82
2022/06/13 15:14:49;;;;;;;2.70;1.27;;;25.30;79.90;;;;;;6220209;23;20908;-81
2022/06/13 15:17:16;;;;;;;5.60;1.10;;;25.40;80.60;;;;;;6219099;23;20743;-83
2022/06/13 15:19:49;;;;;;;2.50;1.20;;;25.30;80.30;;;;;;6219211;23;20422;-82
2022/06/13 15:22:23;;;;;;;5.70;1.50;;;25.10;79.00;;;;;;6219542;23;20398;-82
2022/06/13 15:24:55;;;;;;;6.50;1.87;;;25.00;79.20;;;;;;6220195;23;20767;-82
2022/06/13 15:27:23;;;;;;;2.43;1.20;;;25.00;80.20;;;;;;6218716;23;20394;-83
2022/06/13 15:30:26;;;;;;;5.40;1.63;;;25.30;82.70;;;;;;6218740;23;20395;-81
2022/06/13 15:33:21;;;;;;;2.60;1.20;;;25.40;84.00;;;;;;6240246;22;20410;-83
2022/06/13 15:35:54;;;;;;;3.50;1.10;;;25.30;84.10;;;;;;6219890;23;20426;-82
2022/06/13 15:38:26;;;;;;;2.67;1.33;;;25.30;82.10;;;;;;6216225;23;20382;-82
2022/06/13 15:40:55;;;;;;;5.47;1.20;;;25.20;81.60;;;;;;6218809;23;20382;-82
2022/06/13 15:43:37;;;;;;;2.27;0.90;;;25.20;82.30;;;;;;6219188;23;20406;-83
2022/06/13 15:46:04;;;;;;;4.20;1.10;;;25.20;83.30;;;;;;6218989;23;20386;-85
2022/06/13 15:48:29;;;;;;;6.93;1.63;;;25.10;82.20;;;;;;6218946;23;20382;-82
2022/06/13 15:51:17;;;;;;;3.97;1.30;;;25.00;80.40;;;;;;6245634;23;20430;-81
2022/06/13 15:53:44;;;;;;;3.90;1.50;;;25.00;80.70;;;;;;6218153;23;20202;-83
2022/06/13 15:56:35;;;;;;;4.83;1.30;;;25.10;81.20;;;;;;6245747;23;20375;-84
2022/06/13 15:59:02;;;;;;;4.23;1.00;;;25.00;81.00;;;;;;6220084;23;20496;-82
2022/06/13 16:01:31;;;;;;;2.43;1.07;;;24.90;93.70;;;;;;6244494;23;20374;-83
2022/06/13 16:03:57;;;;;;;3.13;1.13;;;24.70;79.40;;;;;;6194542;23;20890;-82
2022/06/13 16:06:22;;;;;;;2.80;1.10;;;24.30;74.40;;;;;;6246228;23;20385;-82
2022/06/13 16:08:49;;;;;;;4.70;0.90;;;24.10;73.50;;;;;;6247063;23;20361;-83
2022/06/13 16:11:15;;;;;;;3.03;1.10;;;24.00;73.40;;;;;;6248815;23;20199;-82
2022/06/13 16:13:54;;;;;;;3.80;1.20;;;24.10;76.30;;;;;;6221823;23;20433;-82
2022/06/13 16:16:25;;;;;;;3.87;1.30;;;24.20;77.00;;;;;;6220949;23;20372;-82
2022/06/13 16:18:52;;;;;;;4.10;1.10;;;24.40;93.10;;;;;;6222112;23;20376;-82
2022/06/13 16:21:22;;;;;;;4.80;1.30;;;24.30;77.50;;;;;;6248854;23;20892;-81
2022/06/13 16:23:55;;;;;;;3.10;1.13;;;24.40;78.10;;;;;;6221058;23;20406;-83
2022/06/13 16:26:26;;;;;;;6.03;1.30;;;24.40;78.20;;;;;;6221585;23;20376;-83
2022/06/13 16:28:53;;;;;;;4.00;1.23;;;24.40;78.00;;;;;;6221336;23;20384;-83
2022/06/13 16:31:19;;;;;;;2.80;1.13;;;24.30;78.00;;;;;;6249749;23;20426;-81
2022/06/13 16:33:54;;;;;;;3.93;1.10;;;24.20;77.30;;;;;;6223505;23;20520;-82
2022/06/13 16:36:35;;;;;;;2.30;1.27;;;24.10;77.00;;;;;;6251276;23;20593;-82
2022/06/13 16:39:02;;;;;;;3.53;1.40;;;24.10;76.60;;;;;;6221819;23;20445;-82
2022/06/13 16:41:31;;;;;;;3.13;1.60;;;23.90;74.00;;;;;;6248544;23;20371;-81
2022/06/13 16:43:59;;;;;;;7.17;1.70;;;23.80;73.00;;;;;;6249300;23;20382;-83
2022/06/13 16:46:27;;;;;;;4.40;1.47;;;23.80;73.70;;;;;;6221423;23;20391;-81
2022/06/13 16:48:55;;;;;;;4.03;1.23;;;23.70;74.50;;;;;;6249817;23;20384;-83
2022/06/13 16:51:47;;;;;;;3.20;1.23;;;23.70;74.40;;;;;;6250717;23;20793;-82
2022/06/13 16:54:17;;;;;;;6.07;1.60;;;23.60;78.70;;;;;;6218029;23;20430;-82
2022/06/13 16:56:46;;;;;;;7.07;1.47;;;23.50;76.50;;;;;;6248668;23;20398;-82
2022/06/13 16:59:28;;;;;;;3.73;1.47;;;23.40;75.00;;;;;;6224233;23;20390;-82
2022/06/13 17:01:56;;;;;;;3.00;1.00;;;23.40;74.80;;;;;;6223704;22;20411;-83
2022/06/13 17:04:41;;;;;;;2.70;1.20;;;23.40;75.80;;;;;;6250721;23;20462;-82
2022/06/13 17:07:15;;;;;;;4.03;1.37;;;23.30;75.00;;;;;;6254492;23;20445;-82
2022/06/13 17:10:02;;;;;;;6.37;1.37;;;23.30;73.90;;;;;;6250084;23;20361;-82
2022/06/13 17:12:47;;;;;;;7.70;1.23;;;23.10;74.00;;;;;;6222503;23;20488;-82
2022/06/13 17:15:15;;;;;;;5.53;1.60;;;23.10;73.40;;;;;;6220860;23;20811;-82
2022/06/13 17:17:41;;;;;;;5.20;1.77;;;22.90;70.90;;;;;;6220581;23;20383;-82
2022/06/13 17:20:14;;;;;;;5.00;1.40;;;22.90;70.60;;;;;;6248005;23;20382;-82
2022/06/13 17:22:41;;;;;;;4.60;1.40;;;22.80;69.90;;;;;;6220408;23;20452;-81
2022/06/13 17:25:08;;;;;;;2.67;1.10;;;22.70;69.50;;;;;;6247626;23;20795;-81
2022/06/13 17:33:06;;;;;;;4.37;1.37;;;22.80;70.70;;;;;;6249416;22;20459;-83
2022/06/13 17:35:42;;;;;;;2.83;1.17;;;22.80;71.00;;;;;;6248920;23;20426;-83
2022/06/13 17:38:07;;;;;;;3.70;1.57;;;22.60;71.00;;;;;;6222416;23;20507;-81
2022/06/13 17:40:35;;;;;;;7.10;1.70;;;22.50;88.10;;;;;;6221495;23;20409;-82
2022/06/13 17:43:01;;;;;;;5.87;1.57;;;22.40;68.30;;;;;;6220953;23;20171;-82
2022/06/13 17:45:27;;;;;;;6.33;1.37;;;22.40;69.90;;;;;;6221084;23;20391;-82
2022/06/13 17:47:54;;;;;;;3.20;1.27;;;22.40;68.60;;;;;;6221407;23;20781;-85
2022/06/13 17:50:23;;;;;;;3.00;1.40;;;22.40;69.20;;;;;;6221245;23;20208;-82
2022/06/13 17:52:49;;;;;;;6.63;1.50;;;22.40;69.50;;;;;;6221056;23;20956;-82
2022/06/13 17:55:16;;;;;;;6.93;1.57;;;22.30;68.80;;;;;;6220593;23;20432;-81
2022/06/13 17:57:42;;;;;;;3.23;1.30;;;22.20;67.80;;;;;;6219903;23;20380;-83
2022/06/13 18:00:19;;;;;;;5.17;1.43;;;22.10;65.80;;;;;;6248005;23;20377;-82
2022/06/13 18:02:48;;;;;;;3.63;1.27;;;22.00;65.70;;;;;;6221683;23;20433;-82
2022/06/13 18:05:14;;;;;;;3.23;1.20;;;21.90;85.20;;;;;;6246223;23;20376;-82
2022/06/13 18:07:46;;;;;;;2.70;1.70;;;21.90;66.60;;;;;;6219892;23;20737;-82
2022/06/13 18:10:12;;;;;;;2.70;1.03;;;21.80;66.80;;;;;;6247842;23;20394;-83
2022/06/13 18:12:38;;;;;;;3.53;1.53;;;21.70;66.20;;;;;;6220943;23;20410;-83
2022/06/13 18:15:12;;;;;;;3.87;1.70;;;21.70;66.70;;;;;;6248604;23;20419;-83
2022/06/13 18:17:47;;;;;;;3.13;1.80;;;21.60;66.00;;;;;;6222207;23;20156;-85
2022/06/13 18:20:16;;;;;;;4.53;1.43;;;21.50;66.60;;;;;;6222086;23;21138;-82
2022/06/13 18:22:43;;;;;;;3.73;2.10;;;21.50;69.30;;;;;;6219983;23;21008;-81
2022/06/13 18:25:08;;;;;;;5.70;1.50;;;21.50;70.50;;;;;;6246229;23;20391;-81
2022/06/13 18:27:37;;;;;;;9.43;1.70;;;21.50;71.40;;;;;;6248437;23;20379;-81
2022/06/13 18:30:05;;;;;;;5.03;1.40;;;21.50;72.30;;;;;;6248017;23;20500;-81
2022/06/13 18:32:33;;;;;;;3.47;1.43;;;21.40;73.60;;;;;;6220398;23;20415;-81
2022/06/13 18:34:58;;;;;;;4.50;1.47;;;21.40;75.40;;;;;;6247038;23;20419;-81
2022/06/13 18:37:24;;;;;;;6.17;1.87;;;21.30;75.30;;;;;;6248150;23;20382;-81
2022/06/13 18:39:50;;;;;;;5.20;1.73;;;21.30;76.00;;;;;;6220648;23;20238;-81
2022/06/13 18:42:18;;;;;;;4.40;1.40;;;21.20;75.70;;;;;;6220460;23;20587;-83
2022/06/13 18:44:44;;;;;;;3.87;1.83;;;21.10;76.00;;;;;;6224181;23;20467;-81
2022/06/13 18:47:12;;;;;;;6.57;1.90;;;21.00;76.00;;;;;;6247796;23;20376;-82
2022/06/13 18:49:38;;;;;;;4.07;1.30;;;21.00;76.80;;;;;;6219922;23;20473;-83
2022/06/13 18:52:05;;;;;;;5.97;1.70;;;20.90;77.20;;;;;;6220629;23;20402;-82
2022/06/13 18:54:31;;;;;;;4.07;1.70;;;20.80;78.10;;;;;;6220896;23;20565;-81
2022/06/13 18:56:56;;;;;;;6.77;1.60;;;20.80;78.80;;;;;;6221296;23;20604;-81
2022/06/13 18:59:22;;;;;;;5.57;2.30;;;20.70;80.00;;;;;;6221198;23;20379;-80
2022/06/13 19:01:50;;;;;;;6.80;1.80;;;20.50;82.30;;;;;;6221560;22;20171;-81
2022/06/13 19:04:18;;;;;;;5.23;1.50;;;20.40;94.30;;;;;;6247808;23;20163;-81
2022/06/13 19:06:46;;;;;;;3.67;1.43;;;20.20;80.30;;;;;;6221551;23;20409;-82
2022/06/13 19:09:14;;;;;;;5.53;1.70;;;20.10;80.30;;;;;;6220105;23;20383;-82
2022/06/13 19:11:51;;;;;;;4.37;1.97;;;19.90;79.70;;;;;;6219844;22;20393;-82
2022/06/13 19:14:18;;;;;;;6.00;2.17;;;19.90;80.60;;;;;;6247678;23;20427;-83
2022/06/13 19:16:46;;;;;;;3.40;1.70;;;19.80;81.40;;;;;;6249498;23;20375;-83
2022/06/13 19:19:15;;;;;;;9.50;3.00;;;19.70;82.00;;;;;;6221766;23;20425;-82
2022/06/13 19:21:43;;;;;;;6.67;1.60;;;19.60;82.60;;;;;;6249060;22;20412;-81
2022/06/13 19:24:11;;;;;;;5.13;1.47;;;19.50;83.10;;;;;;6221435;23;20475;-81
2022/06/13 19:26:41;;;;;;;6.70;1.70;;;19.30;84.40;;;;;;6220807;23;20773;-82
2022/06/13 19:29:19;;;;;;;4.50;1.57;;;19.30;85.30;;;;;;6247120;23;20385;-81
2022/06/13 19:31:56;;;;;;;5.10;1.70;;;19.20;85.60;;;;;;6221316;22;20424;-82
2022/06/13 19:34:34;;;;;;;4.63;1.63;;;19.00;86.40;;;;;;6220628;23;20502;-82
2022/06/13 19:37:03;;;;;;;4.27;1.77;;;18.90;86.50;;;;;;6247660;23;20389;-83
2022/06/13 19:39:32;;;;;;;2.73;1.43;;;18.90;87.30;;;;;;6247603;23;20401;-80
2022/06/13 19:41:57;;;;;;;7.00;2.50;;;18.80;89.00;;;;;;6247778;22;20422;-81
2022/06/13 19:44:24;;;;;;;7.90;2.00;;;18.70;90.10;;;;;;6221222;23;20384;-80
2022/06/13 19:46:50;;;;;;;5.87;1.97;;;18.60;90.60;;;;;;6222872;23;20162;-81
2022/06/13 19:49:15;;;;;;;7.67;1.80;;;18.50;90.30;;;;;;6223028;23;20413;-82
2022/06/13 19:51:48;;;;;;;3.53;1.60;;;18.50;91.60;;;;;;6223573;22;20180;-83
2022/06/13 19:54:16;;;;;;;6.13;1.80;;;18.40;91.40;;;;;;6224096;23;20268;-82
2022/06/13 19:57:00;;;;;;;4.13;1.60;;;18.30;91.80;;;;;;6199222;23;20385;-81
2022/06/13 19:59:29;;;;;;;9.57;2.57;;;18.20;92.50;;;;;;6251487;23;20407;-82
2022/06/13 20:01:55;;;;;;;6.40;1.97;;;18.20;92.70;;;;;;6251058;22;20391;-82
2022/06/13 20:04:28;;;;;;;2.87;1.60;;;18.10;93.10;;;;;;6250739;23;20386;-82
2022/06/13 20:09:40;;;;;;;8.37;1.77;;;18.00;94.00;;;;;;6256284;23;20382;-82
2022/06/13 20:12:06;;;;;;;4.23;1.57;;;17.90;95.10;;;;;;6250294;22;20421;-83
2022/06/13 20:14:32;;;;;;;5.50;2.50;;;17.80;95.50;;;;;;6222518;23;20514;-82
2022/06/13 20:17:02;;;;;;;5.17;2.30;;;17.80;96.30;;;;;;6222245;23;20391;-82
2022/06/13 20:19:35;;;;;;;6.07;2.20;;;17.70;96.00;;;;;;6222860;23;20163;-80
2022/06/13 20:22:05;;;;;;;9.20;1.80;;;17.60;96.40;;;;;;6222534;23;20406;-81
2022/06/13 20:24:31;;;;;;;6.80;1.80;;;17.60;97.10;;;;;;6221874;23;20391;-80
2022/06/13 20:26:56;;;;;;;4.83;2.37;;;17.60;97.40;;;;;;6250621;23;20456;-81
2022/06/13 20:29:24;;;;;;;5.13;2.03;;;17.50;97.70;;;;;;6224369;23;20399;-82
2022/06/13 20:31:52;;;;;;;14.30;2.27;;;17.50;98.40;;;;;;6251490;22;20157;-82
2022/06/13 20:34:31;;;;;;;3.77;1.70;;;17.40;98.70;;;;;;6224910;23;20427;-82
2022/06/13 20:36:57;;;;;;;8.63;2.30;;;17.30;98.30;;;;;;6251172;23;20678;-82
2022/06/13 20:39:29;;;;;;;4.80;2.00;;;17.30;98.90;;;;;;6223862;23;20872;-82
2022/06/13 20:42:00;;;;;;;4.33;2.43;;;17.20;99.30;;;;;;6252514;22;20725;-81
2022/06/13 20:44:32;;;;;;;9.83;2.10;;;17.10;99.60;;;;;;6223089;23;20386;-83
2022/06/13 20:46:59;;;;;;;6.33;1.67;;;17.00;99.90;;;;;;6223800;23;20394;-82
2022/06/13 20:49:30;;;;;;;6.07;1.93;;;16.90;99.90;;;;;;6222938;23;20386;-81
2022/06/13 20:51:59;;;;;;;4.83;1.80;;;16.90;99.90;;;;;;6222781;22;20418;-82
2022/06/13 20:54:25;;;;;;;3.80;1.97;;;16.80;99.90;;;;;;6222830;23;20492;-83
2022/06/13 20:56:51;;;;;;;6.13;1.93;;;16.80;99.90;;;;;;6224840;23;20442;-83
2022/06/13 20:59:19;;;;;;;3.70;1.60;;;16.70;99.90;;;;;;6224004;23;20390;-83
2022/06/13 21:01:51;;;;;;;8.03;2.20;;;16.70;99.90;;;;;;6223809;22;20247;-83
2022/06/13 21:04:19;;;;;;;6.70;2.50;;;16.60;99.90;;;;;;6224752;23;20393;-83
2022/06/13 21:06:45;;;;;;;6.37;2.00;;;16.60;99.90;;;;;;6222920;23;20460;-83
2022/06/13 21:12:03;;;;;;;3.60;1.83;;;16.40;99.90;;;;;;6250655;22;20401;-83
2022/06/13 21:14:28;;;;;;;6.97;2.40;;;16.40;99.90;;;;;;6222509;23;20430;-82
2022/06/13 21:16:54;;;;;;;6.50;1.97;;;16.30;99.90;;;;;;6249734;23;20379;-82
2022/06/13 21:19:20;;;;;;;9.03;2.17;;;16.30;99.90;;;;;;6252282;23;20836;-82
2022/06/13 21:21:56;;;;;;;7.37;2.20;;;16.30;99.90;;;;;;6224363;22;20387;-82
2022/06/13 21:24:29;;;;;;;5.43;1.73;;;16.20;99.90;;;;;;6223179;23;20720;-83
2022/06/13 21:26:58;;;;;;;5.63;2.10;;;16.20;99.90;;;;;;6250020;23;20374;-81
2022/06/13 21:29:25;;;;;;;5.53;2.20;;;16.20;99.90;;;;;;6250041;23;20493;-82
2022/06/13 21:31:50;;;;;;;3.83;1.80;;;16.10;99.90;;;;;;6223121;22;20401;-82
2022/06/13 21:34:18;;;;;;;4.40;1.80;;;16.10;99.90;;;;;;6222954;23;20761;-82
2022/06/13 21:36:46;;;;;;;7.10;1.53;;;16.10;99.90;;;;;;6223155;23;20163;-83
2022/06/13 21:39:31;;;;;;;6.77;2.27;;;16.10;99.90;;;;;;6223710;23;20383;-83
2022/06/13 21:45:03;;;;;;;;;;;;;;;;;;;;;
2022/06/13 21:51:27;;;;;;;;;;;;;;;;;;;;;
2022/06/13 22:03:46;;;;;;;;;;;;;;;;;;;;;
2022/06/13 22:15:52;;;;;;;4.43;2.40;;;15.60;99.90;;;;;;6222135;23;20457;-82
2022/06/13 22:18:58;;;;;;;4.97;2.00;;;15.50;99.90;;;;;;6221250;23;20428;-81
2022/06/13 22:21:51;;;;;;;7.37;2.03;;;15.50;99.90;;;;;;6248888;23;20846;-81
2022/06/13 22:28:16;;;;;;;;;;;;;;;;;;;;;
2022/06/13 22:34:06;;;;;;;4.90;2.10;;;15.40;99.90;;;;;;6227694;23;20820;-82
2022/06/13 22:37:01;;;;;;;5.80;2.10;;;15.30;99.90;;;;;;6249093;23;20365;-82
2022/06/13 22:43:32;;;;;;;;;;;;;;;;;;;;;
2022/06/13 22:49:57;;;;;;;;;;;;;;;;;;;;;
2022/06/13 22:53:08;;;;;;;;;;;;;;;;;;;;;
2022/06/13 22:56:00;;;;;;;;;;;;;;;;;;;;;
2022/06/13 22:58:29;;;;;;;6.60;2.33;;;14.90;99.90;;;;;;6247686;23;20438;-82
2022/06/13 23:00:54;;;;;;;5.30;2.07;;;14.90;99.90;;;;;;6220192;23;20398;-81
2022/06/13 23:03:20;;;;;;;3.83;1.80;;;14.90;99.90;;;;;;6220648;23;20408;-83
2022/06/13 23:05:45;;;;;;;5.47;1.93;;;14.90;99.90;;;;;;6220276;23;20161;-82
2022/06/13 23:08:11;;;;;;;5.43;1.80;;;14.90;99.90;;;;;;6219469;23;20177;-81
2022/06/13 23:10:37;;;;;;;8.00;1.93;;;14.90;99.90;;;;;;6219772;23;20415;-83
2022/06/13 23:13:02;;;;;;;5.53;1.70;;;14.90;99.90;;;;;;6219746;23;20611;-82
2022/06/13 23:15:28;;;;;;;6.50;2.30;;;14.80;99.90;;;;;;6220253;23;20176;-82
2022/06/13 23:17:53;;;;;;;6.90;2.00;;;14.80;99.90;;;;;;6253444;23;20152;-80
2022/06/13 23:20:19;;;;;;;4.30;2.43;;;14.80;99.90;;;;;;6222660;23;20481;-83
2022/06/13 23:22:45;;;;;;;10.63;2.17;;;14.80;99.90;;;;;;6246327;22;20215;-82
2022/06/13 23:25:10;;;;;;;5.43;1.80;;;14.80;99.90;;;;;;6219581;23;20160;-82
2022/06/13 23:27:36;;;;;;;4.07;1.60;;;14.80;99.90;;;;;;6219948;23;20157;-82
2022/06/13 23:30:03;;;;;;;9.00;1.87;;;14.80;99.90;;;;;;6219788;23;20168;-81
2022/06/13 23:32:29;;;;;;;4.37;2.10;;;14.70;99.90;;;;;;6247151;22;20182;-81
2022/06/13 23:34:55;;;;;;;5.50;2.10;;;14.70;99.90;;;;;;6219880;23;20438;-81
2022/06/13 23:37:21;;;;;;;13.10;2.63;;;14.70;99.90;;;;;;6219753;23;20842;-82
2022/06/13 23:39:46;;;;;;;11.53;2.30;;;14.70;99.90;;;;;;6219961;23;20866;-82
2022/06/13 23:42:12;;;;;;;7.13;2.30;;;14.70;99.90;;;;;;6220042;23;20232;-83
2022/06/13 23:44:38;;;;;;;7.33;1.93;;;14.70;99.90;;;;;;6218978;23;20162;-82
2022/06/13 23:47:04;;;;;;;4.23;1.90;;;14.60;99.90;;;;;;6219218;23;20871;-82
2022/06/13 23:49:29;;;;;;;5.63;1.70;;;14.60;99.90;;;;;;6246806;23;20497;-83
2022/06/13 23:51:55;;;;;;;6.23;2.03;;;14.50;99.90;;;;;;6219045;22;20647;-82
2022/06/13 23:54:21;;;;;;;3.20;1.80;;;14.50;99.90;;;;;;6246590;23;20213;-83
2022/06/13 23:56:47;;;;;;;5.93;2.00;;;14.50;99.90;;;;;;6220254;23;20392;-81
2022/06/13 23:59:13;;;;;;;6.97;2.43;;;14.50;99.90;;;;;;6220261;23;20862;-81
